createdAt,value
2023-03-22T00:01:37.085Z,39.43
2023-03-22T00:04:05.235Z,50.07
2023-03-22T00:06:35.383Z,41.37
2023-03-22T00:09:04.890Z,44.93
2023-03-22T00:11:33.098Z,43.50
2023-03-22T00:14:01.731Z,38.60
2023-03-22T00:16:30.976Z,36.90
2023-03-22T00:19:05.233Z,39.97
2023-03-22T00:21:37.268Z,38.67
2023-03-22T00:24:08.607Z,42.97
2023-03-22T00:26:37.040Z,37.33
2023-03-22T00:29:06.056Z,35.07
2023-03-22T00:31:40.171Z,37.47
2023-03-22T00:34:09.695Z,40.50
2023-03-22T00:36:38.371Z,48.13
2023-03-22T00:39:06.966Z,37.23
2023-03-22T00:41:35.295Z,44.23
2023-03-22T00:44:06.057Z,60.87
2023-03-22T00:46:35.712Z,49.20
2023-03-22T00:49:03.866Z,43.00
2023-03-22T00:51:32.515Z,42.60
2023-03-22T00:54:00.686Z,36.87
2023-03-22T00:56:34.192Z,47.93
2023-03-22T00:59:03.678Z,39.63
2023-03-22T01:01:33.232Z,37.43
2023-03-22T01:04:03.608Z,39.00
2023-03-22T01:06:33.597Z,38.03
2023-03-22T01:09:03.976Z,38.20
2023-03-22T01:11:36.200Z,41.00
2023-03-22T01:14:05.901Z,33.73
2023-03-22T01:16:34.342Z,37.70
2023-03-22T01:19:02.873Z,37.57
2023-03-22T01:21:31.927Z,40.10
2023-03-22T01:24:00.076Z,36.50
2023-03-22T01:26:28.585Z,41.27
2023-03-22T01:28:56.912Z,35.30
2023-03-22T01:31:25.208Z,37.07
2023-03-22T01:33:54.205Z,30.50
2023-03-22T01:36:22.220Z,37.90
2023-03-22T01:38:52.209Z,38.90
2023-03-22T01:41:21.738Z,45.93
2023-03-22T01:44:19.068Z,37.60
2023-03-22T01:46:49.371Z,35.37
2023-03-22T01:49:26.464Z,41.53
2023-03-22T01:51:57.883Z,40.90
2023-03-22T01:54:41.083Z,36.50
2023-03-22T01:57:09.080Z,37.33
2023-03-22T01:59:37.809Z,40.00
2023-03-22T02:02:06.209Z,44.43
2023-03-22T02:04:37.062Z,42.40
2023-03-22T02:07:10.307Z,41.80
2023-03-22T02:09:42.915Z,42.93
2023-03-22T02:12:32.756Z,43.90
2023-03-22T02:15:30.000Z,36.97
2023-03-22T02:18:28.315Z,46.43
2023-03-22T02:21:21.078Z,48.83
2023-03-22T02:23:56.494Z,40.93
2023-03-22T02:26:31.853Z,31.07
2023-03-22T02:29:09.466Z,37.20
2023-03-22T02:31:49.864Z,39.40
2023-03-22T02:34:28.078Z,40.20
2023-03-22T02:37:02.361Z,41.73
2023-03-22T02:39:49.226Z,36.60
2023-03-22T02:42:47.334Z,42.00
2023-03-22T02:45:21.095Z,41.97
2023-03-22T02:48:03.199Z,38.77
2023-03-22T02:50:35.130Z,32.67
2023-03-22T02:53:32.708Z,40.17
2023-03-22T02:56:22.033Z,43.87
2023-03-22T02:58:53.907Z,43.80
2023-03-22T03:01:32.807Z,38.17
2023-03-22T03:04:05.165Z,46.27
2023-03-22T03:06:39.309Z,44.27
2023-03-22T03:09:08.201Z,39.47
2023-03-22T03:11:38.112Z,44.33
2023-03-22T03:14:06.574Z,41.77
2023-03-22T03:16:37.693Z,40.67
2023-03-22T03:19:20.710Z,48.20
2023-03-22T03:22:01.988Z,54.47
2023-03-22T03:24:36.542Z,54.90
2023-03-22T03:27:07.525Z,61.33
2023-03-22T03:30:06.248Z,56.57
2023-03-22T03:32:38.856Z,54.07
2023-03-22T03:35:22.949Z,51.60
2023-03-22T03:37:57.981Z,48.17
2023-03-22T03:40:31.414Z,52.70
2023-03-22T03:43:03.572Z,47.47
2023-03-22T03:45:32.378Z,39.93
2023-03-22T03:48:03.564Z,45.23
2023-03-22T03:50:31.930Z,39.33
2023-03-22T03:53:00.476Z,33.67
2023-03-22T03:55:29.636Z,31.47
2023-03-22T03:57:57.854Z,43.40
2023-03-22T04:00:26.380Z,37.60
2023-03-22T04:02:54.462Z,34.80
2023-03-22T04:05:23.377Z,40.07
2023-03-22T04:07:53.586Z,43.73
2023-03-22T04:10:24.403Z,38.27
2023-03-22T04:12:56.417Z,34.10
2023-03-22T04:15:25.163Z,38.37
2023-03-22T04:17:56.063Z,33.27
2023-03-22T04:20:32.459Z,36.57
2023-03-22T04:23:00.715Z,38.13
2023-03-22T04:25:30.658Z,39.27
2023-03-22T04:28:00.887Z,39.03
2023-03-22T04:30:28.755Z,45.13
2023-03-22T04:32:59.334Z,39.87
2023-03-22T04:35:27.475Z,35.63
2023-03-22T04:37:57.939Z,41.83
2023-03-22T04:40:26.877Z,42.97
2023-03-22T04:42:59.303Z,46.13
2023-03-22T04:45:47.388Z,42.80
2023-03-22T04:48:15.548Z,47.90
2023-03-22T04:50:44.572Z,48.20
2023-03-22T04:53:13.277Z,53.13
2023-03-22T04:55:41.484Z,52.47
2023-03-22T04:58:13.456Z,51.60
2023-03-22T05:00:42.702Z,46.17
2023-03-22T05:03:11.692Z,40.40
2023-03-22T05:05:43.589Z,42.83
2023-03-22T05:08:14.699Z,40.43
2023-03-22T05:10:43.697Z,39.63
2023-03-22T05:13:12.260Z,35.30
2023-03-22T05:15:42.141Z,43.20
2023-03-22T05:18:10.644Z,44.60
2023-03-22T05:20:42.698Z,45.90
2023-03-22T05:23:12.319Z,42.90
2023-03-22T05:25:41.147Z,50.30
2023-03-22T05:28:10.930Z,50.80
2023-03-22T05:30:39.508Z,53.13
2023-03-22T05:33:08.442Z,56.93
2023-03-22T05:35:38.401Z,61.10
2023-03-22T05:38:08.546Z,54.37
2023-03-22T05:40:37.226Z,57.10
2023-03-22T05:43:05.744Z,52.07
2023-03-22T05:45:37.057Z,52.20
2023-03-22T05:48:05.867Z,52.57
2023-03-22T05:50:34.940Z,54.27
2023-03-22T05:53:06.727Z,53.30
2023-03-22T05:55:38.470Z,53.50
2023-03-22T05:58:19.613Z,52.50
2023-03-22T06:00:50.319Z,50.37
2023-03-22T06:03:28.543Z,54.53
2023-03-22T06:05:58.799Z,63.27
2023-03-22T06:08:27.661Z,70.73
2023-03-22T06:10:56.037Z,61.33
2023-03-22T06:13:24.678Z,61.40
2023-03-22T06:15:55.414Z,59.50
2023-03-22T06:18:25.111Z,71.10
2023-03-22T06:20:53.346Z,57.57
2023-03-22T06:23:21.604Z,53.50
2023-03-22T06:25:52.199Z,54.50
2023-03-22T06:28:45.932Z,52.70
2023-03-22T06:31:13.936Z,63.87
2023-03-22T06:33:45.963Z,57.93
2023-03-22T06:36:14.144Z,60.83
2023-03-22T06:38:43.990Z,59.47
2023-03-22T06:41:15.318Z,53.93
2023-03-22T06:43:43.557Z,49.87
2023-03-22T06:46:11.935Z,57.67
2023-03-22T06:48:40.974Z,56.60
2023-03-22T06:51:09.430Z,61.63
2023-03-22T06:53:37.911Z,56.63
2023-03-22T06:56:06.562Z,60.03
2023-03-22T06:58:35.030Z,55.37
2023-03-22T07:01:05.367Z,60.77
2023-03-22T07:03:38.808Z,51.83
2023-03-22T07:06:09.108Z,64.53
2023-03-22T07:08:38.402Z,56.43
2023-03-22T07:11:11.302Z,61.40
2023-03-22T07:13:39.486Z,60.07
2023-03-22T07:16:08.629Z,50.17
2023-03-22T07:18:38.616Z,55.27
2023-03-22T07:21:07.236Z,49.80
2023-03-22T07:23:36.022Z,57.53
2023-03-22T07:26:04.813Z,55.27
2023-03-22T07:28:34.032Z,52.40
2023-03-22T07:31:08.186Z,50.70
2023-03-22T07:33:36.552Z,54.13
2023-03-22T07:36:06.795Z,58.67
2023-03-22T07:38:38.229Z,58.10
2023-03-22T07:41:06.934Z,51.70
2023-03-22T07:43:50.799Z,59.17
2023-03-22T07:46:25.178Z,51.53
2023-03-22T07:48:53.629Z,44.97
2023-03-22T07:51:21.912Z,53.50
2023-03-22T07:53:50.007Z,53.33
2023-03-22T07:56:19.980Z,47.40
2023-03-22T07:58:48.459Z,40.80
2023-03-22T08:01:16.771Z,51.43
2023-03-22T08:03:44.603Z,49.43
2023-03-22T08:06:13.663Z,51.30
2023-03-22T08:08:41.833Z,47.53
2023-03-22T08:11:10.137Z,54.77
2023-03-22T08:13:38.222Z,49.67
2023-03-22T08:16:07.462Z,57.57
2023-03-22T08:18:37.074Z,48.70
2023-03-22T08:21:05.664Z,47.00
2023-03-22T08:23:42.012Z,48.00
2023-03-22T08:26:11.663Z,47.70
2023-03-22T08:28:40.038Z,42.67
2023-03-22T08:31:16.236Z,41.40
2023-03-22T08:33:45.383Z,44.63
2023-03-22T08:36:20.347Z,47.07
2023-03-22T08:38:50.847Z,44.37
2023-03-22T08:41:20.528Z,47.70
2023-03-22T08:43:49.349Z,44.27
2023-03-22T08:46:18.020Z,51.20
2023-03-22T08:48:51.322Z,49.90
2023-03-22T08:51:23.578Z,47.60
2023-03-22T08:53:52.249Z,44.70
2023-03-22T08:56:20.542Z,47.03
2023-03-22T08:58:49.676Z,47.07
2023-03-22T09:01:18.441Z,41.90
2023-03-22T09:03:46.368Z,42.83
2023-03-22T09:06:15.060Z,46.43
2023-03-22T09:08:46.619Z,63.53
2023-03-22T09:11:17.632Z,43.10
2023-03-22T09:13:51.925Z,43.37
2023-03-22T09:16:21.443Z,43.70
2023-03-22T09:18:54.202Z,51.47
2023-03-22T09:21:23.988Z,43.03
2023-03-22T09:23:52.261Z,43.33
2023-03-22T09:26:23.169Z,37.57
2023-03-22T09:28:52.048Z,33.00
2023-03-22T09:31:20.886Z,38.47
2023-03-22T09:33:52.234Z,35.10
2023-03-22T09:36:21.036Z,43.53
2023-03-22T09:38:50.298Z,36.07
2023-03-22T09:41:25.293Z,34.40
2023-03-22T09:43:58.803Z,33.77
2023-03-22T09:46:37.226Z,28.70
2023-03-22T09:49:12.682Z,32.70
2023-03-22T09:51:51.795Z,33.27
2023-03-22T09:54:36.064Z,29.30
2023-03-22T09:57:30.176Z,31.43
2023-03-22T10:00:14.990Z,29.33
2023-03-22T10:02:46.614Z,29.73
2023-03-22T10:05:32.774Z,33.87
2023-03-22T10:08:18.942Z,32.33
2023-03-22T10:10:47.721Z,31.27
2023-03-22T10:13:45.847Z,30.57
2023-03-22T10:16:26.788Z,29.90
2023-03-22T10:19:02.622Z,26.93
2023-03-22T10:21:38.186Z,33.93
2023-03-22T10:24:33.825Z,34.33
2023-03-22T10:27:02.552Z,33.23
2023-03-22T10:29:40.055Z,34.60
2023-03-22T10:32:19.078Z,29.43
2023-03-22T10:34:47.839Z,34.67
2023-03-22T10:37:20.109Z,30.33
2023-03-22T10:39:55.224Z,33.93
2023-03-22T10:42:26.791Z,29.50
2023-03-22T10:45:07.659Z,46.47
2023-03-22T10:47:58.459Z,36.03
2023-03-22T10:50:31.444Z,33.00
2023-03-22T10:53:07.405Z,29.80
2023-03-22T10:55:42.455Z,33.37
2023-03-22T10:58:22.120Z,35.40
2023-03-22T11:00:57.584Z,32.13
2023-03-22T11:03:51.229Z,30.87
2023-03-22T11:06:33.131Z,27.37
2023-03-22T11:09:13.327Z,29.07
2023-03-22T11:11:55.060Z,24.77
2023-03-22T11:14:36.248Z,26.47
2023-03-22T11:17:09.053Z,26.10
2023-03-22T11:19:50.835Z,27.90
2023-03-22T11:22:31.856Z,24.70
2023-03-22T11:25:00.211Z,24.93
2023-03-22T11:27:33.712Z,25.47
2023-03-22T11:30:22.336Z,26.87
2023-03-22T11:33:20.445Z,30.33
2023-03-22T11:35:59.342Z,26.47
2023-03-22T11:38:42.247Z,28.83
2023-03-22T11:41:23.628Z,28.10
2023-03-22T11:43:55.027Z,25.17
2023-03-22T11:46:26.212Z,28.63
2023-03-22T11:49:00.993Z,29.73
2023-03-22T11:51:41.724Z,34.47
2023-03-22T11:54:34.805Z,27.70
2023-03-22T11:57:06.157Z,28.30
2023-03-22T12:00:11.979Z,30.93
2023-03-22T12:02:49.272Z,25.03
2023-03-22T12:05:27.651Z,25.13
2023-03-22T12:08:01.475Z,30.30
2023-03-22T12:10:43.493Z,28.63
2023-03-22T12:13:47.640Z,29.27
2023-03-22T12:16:25.924Z,24.40
2023-03-22T12:19:43.532Z,27.93
2023-03-22T12:22:14.480Z,28.67
2023-03-22T12:24:43.078Z,27.67
2023-03-22T12:27:45.235Z,25.37
2023-03-22T12:30:25.751Z,21.63
2023-03-22T12:33:21.053Z,23.80
2023-03-22T12:35:56.640Z,23.20
2023-03-22T12:38:46.719Z,24.60
2023-03-22T12:41:19.851Z,26.80
2023-03-22T12:44:11.669Z,27.63
2023-03-22T12:46:54.711Z,26.83
2023-03-22T12:49:29.330Z,31.53
2023-03-22T12:52:12.252Z,22.93
2023-03-22T12:54:41.188Z,20.00
2023-03-22T12:57:09.695Z,23.43
2023-03-22T12:59:41.899Z,21.07
2023-03-22T13:02:15.120Z,29.83
2023-03-22T13:04:46.074Z,22.83
2023-03-22T13:07:17.270Z,21.63
2023-03-22T13:09:49.539Z,25.20
2023-03-22T13:12:25.030Z,23.47
2023-03-22T13:14:58.807Z,28.97
2023-03-22T13:17:27.833Z,33.03
2023-03-22T13:20:15.165Z,40.27
2023-03-22T13:22:46.566Z,29.43
2023-03-22T13:25:21.484Z,27.43
2023-03-22T13:28:03.348Z,28.30
2023-03-22T13:30:35.145Z,30.13
2023-03-22T13:33:09.183Z,24.50
2023-03-22T13:35:54.566Z,22.87
2023-03-22T13:38:27.009Z,22.13
2023-03-22T13:41:28.188Z,23.40
2023-03-22T13:44:01.277Z,20.23
2023-03-22T13:46:44.701Z,21.30
2023-03-22T13:49:41.925Z,20.97
2023-03-22T13:52:20.078Z,24.53
2023-03-22T13:54:50.564Z,23.87
2023-03-22T13:57:59.230Z,17.97
2023-03-22T14:00:50.844Z,20.97
2023-03-22T14:03:31.108Z,18.57
2023-03-22T14:06:16.137Z,19.37
2023-03-22T14:08:48.151Z,19.77
2023-03-22T14:11:57.186Z,17.70
2023-03-22T14:14:47.469Z,22.37
2023-03-22T14:17:31.063Z,23.10
2023-03-22T14:20:01.477Z,21.27
